sensor_id;sensor_type;location;lat;lon;timestamp;pressure;altitude;pressure_sealevel;temperature;humidity
60041;BME280;60036;53.468;-2.266;2022-10-01T00:00:06;99309.41;;;16.89;29.40
60041;BME280;60036;53.468;-2.266;2022-10-01T00:02:30;99305.83;;;17.12;29.40
60041;BME280;60036;53.468;-2.266;2022-10-01T00:04:55;99302.27;;;16.73;29.42
60041;BME280;60036;53.468;-2.266;2022-10-01T00:07:20;99305.93;;;16.70;29.39
60041;BME280;60036;53.468;-2.266;2022-10-01T00:09:46;99314.24;;;16.86;29.37
60041;BME280;60036;53.468;-2.266;2022-10-01T00:12:11;99307.00;;;16.58;29.42
60041;BME280;60036;53.468;-2.266;2022-10-01T00:14:36;99315.16;;;16.56;29.40
60041;BME280;60036;53.468;-2.266;2022-10-01T00:17:01;99320.39;;;17.05;29.38
60041;BME280;60036;53.468;-2.266;2022-10-01T00:19:26;99316.76;;;17.02;29.42
60041;BME280;60036;53.468;-2.266;2022-10-01T00:21:51;99322.42;;;17.00;29.31
60041;BME280;60036;53.468;-2.266;2022-10-01T00:24:16;99331.43;;;17.07;29.34
60041;BME280;60036;53.468;-2.266;2022-10-01T00:26:42;99330.45;;;16.73;29.32
60041;BME280;60036;53.468;-2.266;2022-10-01T00:29:14;99330.79;;;17.30;29.27
60041;BME280;60036;53.468;-2.266;2022-10-01T00:31:32;99329.63;;;17.07;29.30
60041;BME280;60036;53.468;-2.266;2022-10-01T00:34:00;99328.89;;;17.04;29.32
60041;BME280;60036;53.468;-2.266;2022-10-01T00:36:23;99332.51;;;16.88;29.30
60041;BME280;60036;53.468;-2.266;2022-10-01T00:38:47;99337.81;;;17.07;29.32
60041;BME280;60036;53.468;-2.266;2022-10-01T00:41:14;99342.47;;;16.83;29.32
60041;BME280;60036;53.468;-2.266;2022-10-01T00:43:42;99346.12;;;17.09;29.30
60041;BME280;60036;53.468;-2.266;2022-10-01T00:46:08;99353.16;;;16.75;29.28
60041;BME280;60036;53.468;-2.266;2022-10-01T00:48:30;99349.75;;;17.04;29.27
60041;BME280;60036;53.468;-2.266;2022-10-01T00:50:54;99356.97;;;16.60;29.26
60041;BME280;60036;53.468;-2.266;2022-10-01T00:53:20;99357.36;;;16.84;29.26
60041;BME280;60036;53.468;-2.266;2022-10-01T00:55:47;99359.52;;;16.74;29.26
60041;BME280;60036;53.468;-2.266;2022-10-01T00:58:11;99362.67;;;16.69;29.22
60041;BME280;60036;53.468;-2.266;2022-10-01T01:00:36;99373.21;;;16.87;29.19
60041;BME280;60036;53.468;-2.266;2022-10-01T01:03:00;99371.02;;;16.97;29.23
60041;BME280;60036;53.468;-2.266;2022-10-01T01:05:25;99371.34;;;17.28;29.17
60041;BME280;60036;53.468;-2.266;2022-10-01T01:07:52;99373.39;;;16.83;29.18
60041;BME280;60036;53.468;-2.266;2022-10-01T01:10:20;99377.00;;;16.86;29.12
60041;BME280;60036;53.468;-2.266;2022-10-01T01:12:50;99377.35;;;16.92;29.14
60041;BME280;60036;53.468;-2.266;2022-10-01T01:15:13;99380.95;;;16.96;29.17
60041;BME280;60036;53.468;-2.266;2022-10-01T01:17:40;99387.84;;;16.91;29.17
60041;BME280;60036;53.468;-2.266;2022-10-01T01:20:09;99390.58;;;16.88;29.14
60041;BME280;60036;53.468;-2.266;2022-10-01T01:22:24;99393.76;;;17.02;29.11
60041;BME280;60036;53.468;-2.266;2022-10-01T01:24:49;99389.15;;;16.65;29.12
60041;BME280;60036;53.468;-2.266;2022-10-01T01:27:22;99393.07;;;17.08;29.11
60041;BME280;60036;53.468;-2.266;2022-10-01T01:29:41;99403.68;;;16.61;29.09
60041;BME280;60036;53.468;-2.266;2022-10-01T01:32:07;99410.68;;;17.00;29.15
60041;BME280;60036;53.468;-2.266;2022-10-01T01:34:30;99410.07;;;16.85;29.13
60041;BME280;60036;53.468;-2.266;2022-10-01T01:36:57;99411.17;;;17.03;29.18
60041;BME280;60036;53.468;-2.266;2022-10-01T01:39:20;99416.14;;;16.57;29.15
60041;BME280;60036;53.468;-2.266;2022-10-01T01:41:46;99420.07;;;16.95;29.12
60041;BME280;60036;53.468;-2.266;2022-10-01T01:44:10;99420.08;;;16.98;29.17
60041;BME280;60036;53.468;-2.266;2022-10-01T01:46:38;99426.48;;;16.94;29.11
60041;BME280;60036;53.468;-2.266;2022-10-01T01:49:00;99426.05;;;16.26;29.12
60041;BME280;60036;53.468;-2.266;2022-10-01T01:51:29;99430.00;;;16.85;29.03
60041;BME280;60036;53.468;-2.266;2022-10-01T01:53:50;99430.47;;;17.00;29.06
60041;BME280;60036;53.468;-2.266;2022-10-01T01:56:15;99430.99;;;16.85;29.15
60041;BME280;60036;53.468;-2.266;2022-10-01T01:58:40;99438.00;;;16.64;29.07
60041;BME280;60036;53.468;-2.266;2022-10-01T02:01:05;99445.99;;;16.70;29.05
60041;BME280;60036;53.468;-2.266;2022-10-01T02:03:32;99451.98;;;16.44;29.05
60041;BME280;60036;53.468;-2.266;2022-10-01T02:05:59;99450.83;;;16.85;29.14
60041;BME280;60036;53.468;-2.266;2022-10-01T02:08:26;99449.48;;;16.74;29.05
60041;BME280;60036;53.468;-2.266;2022-10-01T02:11:00;99452.10;;;16.39;29.05
60041;BME280;60036;53.468;-2.266;2022-10-01T02:13:18;99453.16;;;16.84;29.05
60041;BME280;60036;53.468;-2.266;2022-10-01T02:15:44;99456.04;;;16.60;29.04
60041;BME280;60036;53.468;-2.266;2022-10-01T02:18:06;99458.63;;;16.70;29.06
60041;BME280;60036;53.468;-2.266;2022-10-01T02:20:29;99457.48;;;17.02;29.05
60041;BME280;60036;53.468;-2.266;2022-10-01T02:22:56;99453.29;;;16.64;29.01
60041;BME280;60036;53.468;-2.266;2022-10-01T02:25:17;99453.58;;;16.82;28.94
60041;BME280;60036;53.468;-2.266;2022-10-01T02:27:44;99451.57;;;16.29;28.97
60041;BME280;60036;53.468;-2.266;2022-10-01T02:30:09;99452.00;;;16.91;29.00
60041;BME280;60036;53.468;-2.266;2022-10-01T02:32:33;99457.67;;;17.17;28.97
60041;BME280;60036;53.468;-2.266;2022-10-01T02:34:58;99459.04;;;16.80;28.99
60041;BME280;60036;53.468;-2.266;2022-10-01T02:37:24;99462.22;;;16.80;28.98
60041;BME280;60036;53.468;-2.266;2022-10-01T02:39:49;99468.56;;;16.49;28.94
60041;BME280;60036;53.468;-2.266;2022-10-01T02:42:14;99464.75;;;17.05;28.94
60041;BME280;60036;53.468;-2.266;2022-10-01T02:44:40;99465.26;;;16.92;28.94
60041;BME280;60036;53.468;-2.266;2022-10-01T02:47:05;99470.78;;;16.90;28.94
60041;BME280;60036;53.468;-2.266;2022-10-01T02:49:29;99479.94;;;16.59;28.95
60041;BME280;60036;53.468;-2.266;2022-10-01T02:51:58;99480.42;;;16.77;28.97
60041;BME280;60036;53.468;-2.266;2022-10-01T02:54:24;99486.92;;;16.21;28.95
60041;BME280;60036;53.468;-2.266;2022-10-01T02:56:46;99487.23;;;16.71;28.93
60041;BME280;60036;53.468;-2.266;2022-10-01T02:59:10;99489.84;;;16.98;28.87
60041;BME280;60036;53.468;-2.266;2022-10-01T03:01:36;99486.09;;;16.41;28.86
60041;BME280;60036;53.468;-2.266;2022-10-01T03:04:00;99484.62;;;16.46;28.84
60041;BME280;60036;53.468;-2.266;2022-10-01T03:06:25;99483.50;;;16.75;28.83
60041;BME280;60036;53.468;-2.266;2022-10-01T03:08:50;99487.13;;;16.58;28.90
60041;BME280;60036;53.468;-2.266;2022-10-01T03:11:15;99491.13;;;16.67;28.90
60041;BME280;60036;53.468;-2.266;2022-10-01T03:13:40;99491.42;;;16.62;28.87
60041;BME280;60036;53.468;-2.266;2022-10-01T03:16:06;99499.66;;;16.86;28.89
60041;BME280;60036;53.468;-2.266;2022-10-01T03:18:31;99497.88;;;16.88;28.85
60041;BME280;60036;53.468;-2.266;2022-10-01T03:20:56;99497.75;;;16.67;28.84
60041;BME280;60036;53.468;-2.266;2022-10-01T03:23:21;99504.48;;;16.42;28.80
60041;BME280;60036;53.468;-2.266;2022-10-01T03:25:46;99506.56;;;16.61;28.85
60041;BME280;60036;53.468;-2.266;2022-10-01T03:28:11;99506.41;;;16.74;28.83
60041;BME280;60036;53.468;-2.266;2022-10-01T03:30:36;99504.80;;;16.59;28.84
60041;BME280;60036;53.468;-2.266;2022-10-01T03:33:02;99508.58;;;16.76;28.86
60041;BME280;60036;53.468;-2.266;2022-10-01T03:35:27;99512.34;;;16.47;28.87
60041;BME280;60036;53.468;-2.266;2022-10-01T03:37:52;99512.44;;;16.71;28.80
60041;BME280;60036;53.468;-2.266;2022-10-01T03:40:18;99516.90;;;16.93;28.80
60041;BME280;60036;53.468;-2.266;2022-10-01T03:42:42;99513.02;;;16.83;28.82
60041;BME280;60036;53.468;-2.266;2022-10-01T03:45:08;99514.86;;;16.72;28.78
60041;BME280;60036;53.468;-2.266;2022-10-01T03:47:33;99520.46;;;16.66;28.80
60041;BME280;60036;53.468;-2.266;2022-10-01T03:49:58;99523.79;;;16.77;28.82
60041;BME280;60036;53.468;-2.266;2022-10-01T03:52:23;99543.81;;;16.62;28.82
60041;BME280;60036;53.468;-2.266;2022-10-01T03:54:48;99550.56;;;16.94;28.89
60041;BME280;60036;53.468;-2.266;2022-10-01T03:57:13;99534.50;;;16.72;28.76
60041;BME280;60036;53.468;-2.266;2022-10-01T03:59:38;99534.72;;;16.51;28.80
60041;BME280;60036;53.468;-2.266;2022-10-01T04:02:03;99549.45;;;16.63;28.78
60041;BME280;60036;53.468;-2.266;2022-10-01T04:04:28;99546.70;;;16.57;28.81
60041;BME280;60036;53.468;-2.266;2022-10-01T04:06:53;99552.70;;;16.67;28.81
60041;BME280;60036;53.468;-2.266;2022-10-01T04:09:19;99560.91;;;16.53;28.75
60041;BME280;60036;53.468;-2.266;2022-10-01T04:11:44;99561.38;;;16.67;28.76
60041;BME280;60036;53.468;-2.266;2022-10-01T04:14:09;99567.91;;;16.62;28.79
60041;BME280;60036;53.468;-2.266;2022-10-01T04:16:35;99570.21;;;16.49;28.75
60041;BME280;60036;53.468;-2.266;2022-10-01T04:19:00;99571.86;;;16.79;28.70
60041;BME280;60036;53.468;-2.266;2022-10-01T04:21:25;99573.83;;;16.84;28.74
60041;BME280;60036;53.468;-2.266;2022-10-01T04:23:50;99576.96;;;16.75;28.73
60041;BME280;60036;53.468;-2.266;2022-10-01T04:26:15;99573.10;;;16.47;28.72
60041;BME280;60036;53.468;-2.266;2022-10-01T04:28:41;99598.18;;;16.57;28.73
60041;BME280;60036;53.468;-2.266;2022-10-01T04:31:06;99605.39;;;16.59;28.73
60041;BME280;60036;53.468;-2.266;2022-10-01T04:33:31;99600.11;;;16.57;28.72
60041;BME280;60036;53.468;-2.266;2022-10-01T04:35:57;99606.32;;;16.79;28.69
60041;BME280;60036;53.468;-2.266;2022-10-01T04:38:22;99607.65;;;16.64;28.73
60041;BME280;60036;53.468;-2.266;2022-10-01T04:40:47;99608.22;;;16.61;28.73
60041;BME280;60036;53.468;-2.266;2022-10-01T04:43:12;99611.21;;;16.33;28.69
60041;BME280;60036;53.468;-2.266;2022-10-01T04:45:37;99613.62;;;16.78;28.69
60041;BME280;60036;53.468;-2.266;2022-10-01T04:48:03;99622.46;;;16.63;28.71
60041;BME280;60036;53.468;-2.266;2022-10-01T04:50:28;99621.94;;;16.55;28.71
60041;BME280;60036;53.468;-2.266;2022-10-01T04:52:54;99626.37;;;16.65;28.75
60041;BME280;60036;53.468;-2.266;2022-10-01T04:55:19;99629.85;;;16.43;28.66
60041;BME280;60036;53.468;-2.266;2022-10-01T04:57:44;99631.84;;;16.61;28.73
60041;BME280;60036;53.468;-2.266;2022-10-01T05:00:11;99632.53;;;16.72;28.74
60041;BME280;60036;53.468;-2.266;2022-10-01T05:02:34;99631.33;;;16.50;28.69
60041;BME280;60036;53.468;-2.266;2022-10-01T05:04:59;99629.02;;;16.16;28.66
60041;BME280;60036;53.468;-2.266;2022-10-01T05:07:24;99634.29;;;16.36;28.65
60041;BME280;60036;53.468;-2.266;2022-10-01T05:09:49;99650.07;;;16.67;28.64
60041;BME280;60036;53.468;-2.266;2022-10-01T05:12:19;99642.10;;;16.47;28.66
60041;BME280;60036;53.468;-2.266;2022-10-01T05:14:39;99642.71;;;16.77;28.67
60041;BME280;60036;53.468;-2.266;2022-10-01T05:17:05;99646.77;;;16.61;28.70
60041;BME280;60036;53.468;-2.266;2022-10-01T05:19:30;99650.78;;;16.17;28.62
60041;BME280;60036;53.468;-2.266;2022-10-01T05:21:55;99651.88;;;16.88;28.62
60041;BME280;60036;53.468;-2.266;2022-10-01T05:24:20;99658.31;;;16.27;28.62
60041;BME280;60036;53.468;-2.266;2022-10-01T05:26:45;99662.83;;;16.65;28.66
60041;BME280;60036;53.468;-2.266;2022-10-01T05:29:10;99665.19;;;16.70;28.59
60041;BME280;60036;53.468;-2.266;2022-10-01T05:31:35;99667.98;;;16.50;28.60
60041;BME280;60036;53.468;-2.266;2022-10-01T05:34:00;99671.38;;;16.58;28.59
60041;BME280;60036;53.468;-2.266;2022-10-01T05:36:26;99675.39;;;16.61;28.63
60041;BME280;60036;53.468;-2.266;2022-10-01T05:38:51;99679.53;;;16.65;28.59
60041;BME280;60036;53.468;-2.266;2022-10-01T05:41:16;99684.26;;;16.55;28.59
60041;BME280;60036;53.468;-2.266;2022-10-01T05:43:41;99686.52;;;16.40;28.62
60041;BME280;60036;53.468;-2.266;2022-10-01T05:46:07;99686.81;;;16.57;28.62
60041;BME280;60036;53.468;-2.266;2022-10-01T05:48:32;99692.15;;;16.48;28.58
60041;BME280;60036;53.468;-2.266;2022-10-01T05:50:57;99692.51;;;16.71;28.56
60041;BME280;60036;53.468;-2.266;2022-10-01T05:53:22;99694.89;;;16.57;28.59
60041;BME280;60036;53.468;-2.266;2022-10-01T05:55:47;99703.27;;;16.70;28.55
60041;BME280;60036;53.468;-2.266;2022-10-01T05:58:13;99697.93;;;16.55;28.52
60041;BME280;60036;53.468;-2.266;2022-10-01T06:00:39;99706.12;;;16.66;28.54
60041;BME280;60036;53.468;-2.266;2022-10-01T06:03:04;99714.56;;;16.30;28.55
60041;BME280;60036;53.468;-2.266;2022-10-01T06:05:30;99717.31;;;16.64;28.58
60041;BME280;60036;53.468;-2.266;2022-10-01T06:07:53;99720.42;;;16.33;28.55
60041;BME280;60036;53.468;-2.266;2022-10-01T06:10:19;99718.82;;;16.46;28.56
60041;BME280;60036;53.468;-2.266;2022-10-01T06:12:43;99723.16;;;16.56;28.53
60041;BME280;60036;53.468;-2.266;2022-10-01T06:15:09;99727.25;;;16.13;28.56
60041;BME280;60036;53.468;-2.266;2022-10-01T06:17:34;99732.54;;;16.21;28.77
60041;BME280;60036;53.468;-2.266;2022-10-01T06:19:59;99736.39;;;16.46;28.58
60041;BME280;60036;53.468;-2.266;2022-10-01T06:22:24;99744.90;;;16.51;28.52
60041;BME280;60036;53.468;-2.266;2022-10-01T06:24:49;99743.15;;;16.51;28.54
60041;BME280;60036;53.468;-2.266;2022-10-01T06:27:19;99747.93;;;16.29;28.52
60041;BME280;60036;53.468;-2.266;2022-10-01T06:29:39;99750.41;;;16.46;28.48
60041;BME280;60036;53.468;-2.266;2022-10-01T06:32:05;99758.41;;;15.99;28.86
60041;BME280;60036;53.468;-2.266;2022-10-01T06:34:30;99752.78;;;16.56;28.49
60041;BME280;60036;53.468;-2.266;2022-10-01T06:36:56;99757.86;;;16.60;28.26
60041;BME280;60036;53.468;-2.266;2022-10-01T06:39:21;99759.85;;;16.38;28.38
60041;BME280;60036;53.468;-2.266;2022-10-01T06:41:47;99759.24;;;16.42;28.41
60041;BME280;60036;53.468;-2.266;2022-10-01T06:44:11;99769.20;;;16.49;28.60
60041;BME280;60036;53.468;-2.266;2022-10-01T06:46:37;99768.03;;;16.47;28.68
60041;BME280;60036;53.468;-2.266;2022-10-01T06:49:02;99773.92;;;16.53;28.49
60041;BME280;60036;53.468;-2.266;2022-10-01T06:51:27;99775.07;;;16.44;28.63
60041;BME280;60036;53.468;-2.266;2022-10-01T06:53:53;99780.32;;;16.13;28.66
60041;BME280;60036;53.468;-2.266;2022-10-01T06:56:19;99777.13;;;16.14;28.69
60041;BME280;60036;53.468;-2.266;2022-10-01T06:58:45;99780.50;;;16.15;28.70
60041;BME280;60036;53.468;-2.266;2022-10-01T07:01:11;99789.58;;;15.86;28.91
60041;BME280;60036;53.468;-2.266;2022-10-01T07:03:35;99785.13;;;16.49;28.61
60041;BME280;60036;53.468;-2.266;2022-10-01T07:06:01;99789.87;;;15.87;28.72
60041;BME280;60036;53.468;-2.266;2022-10-01T07:08:26;99791.95;;;16.35;28.78
60041;BME280;60036;53.468;-2.266;2022-10-01T07:10:51;99795.88;;;16.64;28.73
60041;BME280;60036;53.468;-2.266;2022-10-01T07:13:18;99803.65;;;16.02;28.74
60041;BME280;60036;53.468;-2.266;2022-10-01T07:15:43;99808.04;;;16.33;28.74
60041;BME280;60036;53.468;-2.266;2022-10-01T07:18:08;99804.63;;;16.36;28.72
60041;BME280;60036;53.468;-2.266;2022-10-01T07:20:35;99807.83;;;16.41;28.72
60041;BME280;60036;53.468;-2.266;2022-10-01T07:23:00;99808.95;;;16.43;28.53
60041;BME280;60036;53.468;-2.266;2022-10-01T07:25:26;99813.54;;;16.19;28.52
60041;BME280;60036;53.468;-2.266;2022-10-01T07:27:53;99820.45;;;16.21;28.58
60041;BME280;60036;53.468;-2.266;2022-10-01T07:30:15;99824.24;;;16.22;28.56
60041;BME280;60036;53.468;-2.266;2022-10-01T07:32:42;99829.43;;;16.50;28.37
60041;BME280;60036;53.468;-2.266;2022-10-01T07:35:06;99832.68;;;16.78;28.08
60041;BME280;60036;53.468;-2.266;2022-10-01T07:37:31;99839.56;;;16.55;28.09
60041;BME280;60036;53.468;-2.266;2022-10-01T07:39:56;99842.59;;;16.26;28.28
60041;BME280;60036;53.468;-2.266;2022-10-01T07:42:22;99838.92;;;16.23;28.36
60041;BME280;60036;53.468;-2.266;2022-10-01T07:44:47;99843.83;;;16.31;28.40
60041;BME280;60036;53.468;-2.266;2022-10-01T07:47:12;99845.79;;;16.06;28.47
60041;BME280;60036;53.468;-2.266;2022-10-01T07:49:38;99847.32;;;16.50;28.46
60041;BME280;60036;53.468;-2.266;2022-10-01T07:52:03;99845.83;;;16.37;28.77
60041;BME280;60036;53.468;-2.266;2022-10-01T07:54:29;99843.03;;;16.38;29.46
60041;BME280;60036;53.468;-2.266;2022-10-01T07:56:55;99850.43;;;16.76;29.36
60041;BME280;60036;53.468;-2.266;2022-10-01T07:59:21;99844.68;;;16.51;29.78
60041;BME280;60036;53.468;-2.266;2022-10-01T08:01:47;99842.80;;;16.34;29.00
60041;BME280;60036;53.468;-2.266;2022-10-01T08:04:11;99840.69;;;16.54;28.36
60041;BME280;60036;53.468;-2.266;2022-10-01T08:06:36;99848.95;;;16.52;28.19
60041;BME280;60036;53.468;-2.266;2022-10-01T08:09:02;99855.00;;;16.72;28.08
60041;BME280;60036;53.468;-2.266;2022-10-01T08:11:27;99862.98;;;17.09;28.05
60041;BME280;60036;53.468;-2.266;2022-10-01T08:13:53;99863.52;;;16.46;28.15
60041;BME280;60036;53.468;-2.266;2022-10-01T08:16:18;99870.88;;;16.38;28.15
60041;BME280;60036;53.468;-2.266;2022-10-01T08:18:43;99867.50;;;16.57;28.10
60041;BME280;60036;53.468;-2.266;2022-10-01T08:21:08;99868.55;;;16.62;28.05
60041;BME280;60036;53.468;-2.266;2022-10-01T08:23:34;99872.64;;;16.44;28.07
60041;BME280;60036;53.468;-2.266;2022-10-01T08:25:59;99879.22;;;16.79;28.01
60041;BME280;60036;53.468;-2.266;2022-10-01T08:28:30;99880.76;;;16.68;28.43
60041;BME280;60036;53.468;-2.266;2022-10-01T08:31:41;99894.78;;;16.75;28.59
60041;BME280;60036;53.468;-2.266;2022-10-01T08:33:52;99897.46;;;16.54;28.65
60041;BME280;60036;53.468;-2.266;2022-10-01T08:36:18;99902.63;;;16.39;28.44
60041;BME280;60036;53.468;-2.266;2022-10-01T08:38:44;99899.69;;;16.74;28.28
60041;BME280;60036;53.468;-2.266;2022-10-01T08:41:19;99900.85;;;16.51;28.30
60041;BME280;60036;53.468;-2.266;2022-10-01T08:43:34;99908.47;;;16.72;28.17
60041;BME280;60036;53.468;-2.266;2022-10-01T08:46:00;99909.32;;;16.43;28.17
60041;BME280;60036;53.468;-2.266;2022-10-01T08:48:33;99911.76;;;16.47;28.21
60041;BME280;60036;53.468;-2.266;2022-10-01T08:50:51;99918.97;;;16.68;28.31
60041;BME280;60036;53.468;-2.266;2022-10-01T08:53:26;99919.41;;;16.23;28.54
60041;BME280;60036;53.468;-2.266;2022-10-01T08:55:39;99918.95;;;16.56;28.64
60041;BME280;60036;53.468;-2.266;2022-10-01T08:58:06;99931.10;;;16.39;28.72
60041;BME280;60036;53.468;-2.266;2022-10-01T09:00:30;99935.51;;;16.42;28.76
60041;BME280;60036;53.468;-2.266;2022-10-01T09:02:57;99937.23;;;16.47;28.71
60041;BME280;60036;53.468;-2.266;2022-10-01T09:05:22;99943.03;;;16.51;28.50
60041;BME280;60036;53.468;-2.266;2022-10-01T09:07:54;99942.06;;;16.51;28.56
60041;BME280;60036;53.468;-2.266;2022-10-01T09:10:20;99944.64;;;16.76;28.54
60041;BME280;60036;53.468;-2.266;2022-10-01T09:12:43;99951.04;;;16.65;28.56
60041;BME280;60036;53.468;-2.266;2022-10-01T09:15:12;99954.32;;;16.72;28.71
60041;BME280;60036;53.468;-2.266;2022-10-01T09:17:39;99957.70;;;16.83;28.40
60041;BME280;60036;53.468;-2.266;2022-10-01T09:20:00;99961.25;;;16.34;28.59
60041;BME280;60036;53.468;-2.266;2022-10-01T09:22:22;99953.78;;;16.36;28.54
60041;BME280;60036;53.468;-2.266;2022-10-01T09:24:43;99962.51;;;16.82;28.53
60041;BME280;60036;53.468;-2.266;2022-10-01T09:27:11;99966.09;;;16.82;28.37
60041;BME280;60036;53.468;-2.266;2022-10-01T09:29:38;99971.66;;;16.91;28.34
60041;BME280;60036;53.468;-2.266;2022-10-01T09:31:57;99970.31;;;16.98;28.34
60041;BME280;60036;53.468;-2.266;2022-10-01T09:34:27;99969.02;;;16.60;28.43
60041;BME280;60036;53.468;-2.266;2022-10-01T09:37:00;99980.24;;;16.57;28.44
60041;BME280;60036;53.468;-2.266;2022-10-01T09:39:22;99983.75;;;17.11;28.23
60041;BME280;60036;53.468;-2.266;2022-10-01T09:41:36;99982.48;;;16.82;28.44
60041;BME280;60036;53.468;-2.266;2022-10-01T09:44:02;99985.59;;;16.81;28.31
60041;BME280;60036;53.468;-2.266;2022-10-01T09:46:27;99989.54;;;16.71;28.35
60041;BME280;60036;53.468;-2.266;2022-10-01T09:48:55;99979.89;;;16.84;28.30
60041;BME280;60036;53.468;-2.266;2022-10-01T09:51:21;99990.64;;;16.86;28.16
60041;BME280;60036;53.468;-2.266;2022-10-01T09:53:45;99993.23;;;17.01;28.22
60041;BME280;60036;53.468;-2.266;2022-10-01T09:56:12;99996.62;;;16.79;28.29
60041;BME280;60036;53.468;-2.266;2022-10-01T09:58:34;99992.40;;;16.72;28.22
60041;BME280;60036;53.468;-2.266;2022-10-01T10:00:58;99991.50;;;16.96;28.22
60041;BME280;60036;53.468;-2.266;2022-10-01T10:03:24;99983.68;;;16.75;28.16
60041;BME280;60036;53.468;-2.266;2022-10-01T10:05:48;100008.03;;;17.07;28.16
60041;BME280;60036;53.468;-2.266;2022-10-01T10:08:17;99992.89;;;16.84;28.14
60041;BME280;60036;53.468;-2.266;2022-10-01T10:10:38;100006.16;;;16.86;28.17
60041;BME280;60036;53.468;-2.266;2022-10-01T10:13:11;100010.52;;;16.89;28.10
60041;BME280;60036;53.468;-2.266;2022-10-01T10:15:28;100009.81;;;16.76;28.01
60041;BME280;60036;53.468;-2.266;2022-10-01T10:18:05;100018.73;;;16.84;28.12
60041;BME280;60036;53.468;-2.266;2022-10-01T10:20:23;100029.74;;;16.43;28.09
60041;BME280;60036;53.468;-2.266;2022-10-01T10:22:44;100029.30;;;16.86;27.98
60041;BME280;60036;53.468;-2.266;2022-10-01T10:25:12;100035.62;;;16.81;27.94
60041;BME280;60036;53.468;-2.266;2022-10-01T10:27:34;100039.70;;;16.62;27.95
60041;BME280;60036;53.468;-2.266;2022-10-01T10:30:02;100042.66;;;16.71;28.02
60041;BME280;60036;53.468;-2.266;2022-10-01T10:32:25;100041.29;;;16.91;27.90
60041;BME280;60036;53.468;-2.266;2022-10-01T10:34:50;100040.62;;;16.84;27.93
60041;BME280;60036;53.468;-2.266;2022-10-01T10:37:23;100046.05;;;17.07;27.87
60041;BME280;60036;53.468;-2.266;2022-10-01T10:39:41;100050.30;;;16.93;27.86
60041;BME280;60036;53.468;-2.266;2022-10-01T10:42:05;100058.22;;;16.80;27.90
60041;BME280;60036;53.468;-2.266;2022-10-01T10:44:33;100050.93;;;17.09;27.79
60041;BME280;60036;53.468;-2.266;2022-10-01T10:46:59;100057.87;;;16.68;27.87
60041;BME280;60036;53.468;-2.266;2022-10-01T10:49:24;100063.27;;;16.87;27.87
60041;BME280;60036;53.468;-2.266;2022-10-01T10:51:47;100059.57;;;16.71;27.86
60041;BME280;60036;53.468;-2.266;2022-10-01T10:54:20;100055.94;;;16.74;27.83
60041;BME280;60036;53.468;-2.266;2022-10-01T10:56:37;100069.17;;;16.92;27.87
60041;BME280;60036;53.468;-2.266;2022-10-01T10:59:05;100078.70;;;17.09;27.67
60041;BME280;60036;53.468;-2.266;2022-10-01T11:01:27;100075.17;;;16.67;27.72
60041;BME280;60036;53.468;-2.266;2022-10-01T11:03:53;100078.11;;;16.75;27.90
60041;BME280;60036;53.468;-2.266;2022-10-01T11:06:16;100081.03;;;16.77;27.96
60041;BME280;60036;53.468;-2.266;2022-10-01T11:08:42;100081.59;;;16.96;28.24
60041;BME280;60036;53.468;-2.266;2022-10-01T11:11:15;100085.62;;;16.81;28.32
60041;BME280;60036;53.468;-2.266;2022-10-01T11:13:43;100100.21;;;16.59;28.33
60041;BME280;60036;53.468;-2.266;2022-10-01T11:16:11;100094.72;;;16.40;28.37
60041;BME280;60036;53.468;-2.266;2022-10-01T11:18:33;100090.88;;;16.35;28.37
60041;BME280;60036;53.468;-2.266;2022-10-01T11:20:54;100101.48;;;16.83;28.29
60041;BME280;60036;53.468;-2.266;2022-10-01T11:23:25;100109.96;;;16.48;28.22
60041;BME280;60036;53.468;-2.266;2022-10-01T11:25:44;100109.54;;;16.04;28.33
60041;BME280;60036;53.468;-2.266;2022-10-01T11:28:12;100116.85;;;16.48;28.38
60041;BME280;60036;53.468;-2.266;2022-10-01T11:30:32;100121.57;;;16.49;28.49
60041;BME280;60036;53.468;-2.266;2022-10-01T11:32:59;100123.99;;;16.46;28.41
60041;BME280;60036;53.468;-2.266;2022-10-01T11:35:27;100130.95;;;16.43;28.45
60041;BME280;60036;53.468;-2.266;2022-10-01T11:37:52;100129.07;;;16.47;28.36
60041;BME280;60036;53.468;-2.266;2022-10-01T11:40:15;100123.52;;;16.70;28.30
60041;BME280;60036;53.468;-2.266;2022-10-01T11:42:34;100134.61;;;16.51;28.36
60041;BME280;60036;53.468;-2.266;2022-10-01T11:45:01;100132.78;;;16.40;28.33
60041;BME280;60036;53.468;-2.266;2022-10-01T11:47:27;100139.51;;;16.48;28.34
60041;BME280;60036;53.468;-2.266;2022-10-01T11:49:53;100142.99;;;16.51;28.31
60041;BME280;60036;53.468;-2.266;2022-10-01T11:52:20;100140.70;;;16.50;28.36
60041;BME280;60036;53.468;-2.266;2022-10-01T11:54:50;100145.22;;;16.26;28.42
60041;BME280;60036;53.468;-2.266;2022-10-01T11:57:04;100143.48;;;16.31;28.30
60041;BME280;60036;53.468;-2.266;2022-10-01T11:59:33;100157.05;;;16.45;28.39
60041;BME280;60036;53.468;-2.266;2022-10-01T12:02:00;100148.75;;;16.20;28.38
60041;BME280;60036;53.468;-2.266;2022-10-01T12:04:28;100167.79;;;16.47;28.27
60041;BME280;60036;53.468;-2.266;2022-10-01T12:06:52;100168.84;;;16.64;28.26
60041;BME280;60036;53.468;-2.266;2022-10-01T12:09:15;100178.61;;;16.60;28.30
60041;BME280;60036;53.468;-2.266;2022-10-01T12:11:39;100179.46;;;16.35;28.21
60041;BME280;60036;53.468;-2.266;2022-10-01T12:14:03;100181.73;;;16.65;28.18
60041;BME280;60036;53.468;-2.266;2022-10-01T12:16:35;100185.97;;;16.26;28.12
60041;BME280;60036;53.468;-2.266;2022-10-01T12:18:52;100180.54;;;16.22;28.14
60041;BME280;60036;53.468;-2.266;2022-10-01T12:21:19;100182.98;;;16.20;28.15
60041;BME280;60036;53.468;-2.266;2022-10-01T12:23:44;100183.11;;;16.48;28.16
60041;BME280;60036;53.468;-2.266;2022-10-01T12:26:14;100183.24;;;16.48;28.15
60041;BME280;60036;53.468;-2.266;2022-10-01T12:28:33;100186.03;;;16.26;28.23
60041;BME280;60036;53.468;-2.266;2022-10-01T12:31:01;100186.38;;;16.35;28.16
60041;BME280;60036;53.468;-2.266;2022-10-01T12:33:35;100191.56;;;16.41;28.13
60041;BME280;60036;53.468;-2.266;2022-10-01T12:35:55;100194.75;;;16.22;28.16